Time;durP1;ratioP1;P1;durP2;ratioP2;P2;SDS_P1;SDS_P2;PMS_P1;PMS_P2;Temp;Humidity;BMP_temperature;BMP_pressure;BME280_temperature;BME280_humidity;BME280_pressure;Samples;Min_cycle;Max_cycle;Signal;HPM_P1;HPM_P2
2023/04/09 00:02:16;;;;;;;165.57;84.18;;;;;;;;;;5058843;28;20037;-71
2023/04/09 00:04:42;;;;;;;177.20;86.10;;;;;;;;;;5061502;28;20090;-71
2023/04/09 00:07:08;;;;;;;180.27;85.68;;;;;;;;;;5052982;28;20033;-71
2023/04/09 00:09:34;;;;;;;179.18;87.78;;;;;;;;;;5052388;28;20025;-71
2023/04/09 00:12:00;;;;;;;173.63;82.93;;;;;;;;;;5052413;28;20086;-71
2023/04/09 00:14:27;;;;;;;170.35;84.22;;;;;;;;;;5053125;28;20099;-70
2023/04/09 00:16:53;;;;;;;179.30;86.28;;;;;;;;;;5052183;28;20100;-70
2023/04/09 00:19:19;;;;;;;169.18;85.13;;;;;;;;;;5052072;28;20025;-70
2023/04/09 00:21:45;;;;;;;182.27;86.63;;;;;;;;;;5051837;28;20117;-70
2023/04/09 00:24:11;;;;;;;187.88;88.30;;;;;;;;;;5052021;28;20406;-71
2023/04/09 00:26:37;;;;;;;185.75;86.47;;;;;;;;;;5051878;28;20032;-70
2023/04/09 00:29:03;;;;;;;183.35;87.60;;;;;;;;;;5051991;28;20025;-71
2023/04/09 00:31:29;;;;;;;187.55;89.22;;;;;;;;;;5051905;28;20032;-70
2023/04/09 00:33:55;;;;;;;188.73;89.22;;;;;;;;;;5051739;28;20017;-70
2023/04/09 00:36:21;;;;;;;190.98;90.57;;;;;;;;;;5051937;28;20021;-70
2023/04/09 00:38:47;;;;;;;190.48;88.38;;;;;;;;;;5051753;28;20090;-70
2023/04/09 00:41:13;;;;;;;191.25;90.32;;;;;;;;;;5051723;28;20103;-71
2023/04/09 00:43:39;;;;;;;189.18;85.35;;;;;;;;;;5051601;28;20025;-70
2023/04/09 00:46:05;;;;;;;194.75;87.82;;;;;;;;;;5051684;28;20080;-70
2023/04/09 00:48:31;;;;;;;196.00;88.35;;;;;;;;;;5051406;28;20458;-70
2023/04/09 00:50:57;;;;;;;203.38;92.15;;;;;;;;;;5051687;28;20029;-70
2023/04/09 00:53:23;;;;;;;207.02;91.18;;;;;;;;;;5051351;28;20025;-70
2023/04/09 00:55:49;;;;;;;211.50;92.00;;;;;;;;;;5050835;28;20494;-70
2023/04/09 00:58:16;;;;;;;217.75;93.85;;;;;;;;;;5051405;28;20036;-70
2023/04/09 01:00:41;;;;;;;217.82;93.47;;;;;;;;;;5051177;28;20025;-70
2023/04/09 01:03:07;;;;;;;219.98;94.05;;;;;;;;;;5050214;28;20033;-71
2023/04/09 01:05:38;;;;;;;224.05;91.53;;;;;;;;;;5051206;28;20087;-70
2023/04/09 01:08:10;;;;;;;229.18;92.20;;;;;;;;;;5051284;28;20025;-70
2023/04/09 01:10:36;;;;;;;224.15;91.45;;;;;;;;;;5051455;28;20025;-70
2023/04/09 01:13:28;;;;;;;240.55;93.97;;;;;;;;;;5051165;28;20471;-70
2023/04/09 01:15:56;;;;;;;233.52;91.93;;;;;;;;;;5051356;28;20407;-70
2023/04/09 01:18:24;;;;;;;233.90;93.40;;;;;;;;;;5051226;28;20074;-70
2023/04/09 01:20:59;;;;;;;243.15;93.90;;;;;;;;;;5051321;28;20037;-70
2023/04/09 01:23:38;;;;;;;238.40;92.00;;;;;;;;;;5051016;28;20067;-70
2023/04/09 01:26:18;;;;;;;242.80;93.35;;;;;;;;;;5051186;28;20495;-70
2023/04/09 01:28:46;;;;;;;227.25;90.05;;;;;;;;;;5051361;28;20064;-69
2023/04/09 01:31:17;;;;;;;234.48;88.55;;;;;;;;;;5051218;28;20028;-70
2023/04/09 01:33:43;;;;;;;248.55;88.75;;;;;;;;;;5051103;28;20028;-71
2023/04/09 01:36:09;;;;;;;244.75;93.47;;;;;;;;;;5051351;28;20051;-70
2023/04/09 01:38:36;;;;;;;233.43;89.65;;;;;;;;;;5051185;28;20021;-70
2023/04/09 01:41:03;;;;;;;237.60;89.43;;;;;;;;;;5051180;28;20025;-71
2023/04/09 01:43:30;;;;;;;248.18;91.43;;;;;;;;;;5050964;28;20502;-69
2023/04/09 01:45:56;;;;;;;250.68;90.35;;;;;;;;;;5051012;28;20043;-71
2023/04/09 01:48:23;;;;;;;254.50;93.57;;;;;;;;;;5050974;28;20021;-71
2023/04/09 01:50:50;;;;;;;259.63;93.82;;;;;;;;;;5051160;28;20029;-72
2023/04/09 01:53:16;;;;;;;246.57;89.35;;;;;;;;;;5050665;28;20360;-71
2023/04/09 01:55:42;;;;;;;266.08;93.07;;;;;;;;;;5051451;28;20366;-71
2023/04/09 01:58:08;;;;;;;238.85;90.70;;;;;;;;;;5052956;28;20082;-74
2023/04/09 02:00:45;;;;;;;237.63;86.75;;;;;;;;;;5051242;28;20033;-70
2023/04/09 02:03:16;;;;;;;252.52;87.88;;;;;;;;;;5048435;28;20028;-71
2023/04/09 02:05:46;;;;;;;222.85;84.28;;;;;;;;;;5051111;28;20047;-70
2023/04/09 02:08:13;;;;;;;228.90;85.15;;;;;;;;;;5071924;28;20067;-70
2023/04/09 02:10:40;;;;;;;210.15;78.22;;;;;;;;;;5074807;28;20078;-69
2023/04/09 02:13:07;;;;;;;210.63;81.78;;;;;;;;;;5073911;28;20025;-69
2023/04/09 02:15:36;;;;;;;210.52;80.85;;;;;;;;;;5074775;28;20025;-70
2023/04/09 02:18:02;;;;;;;224.02;80.32;;;;;;;;;;5074521;28;20024;-70
2023/04/09 02:20:28;;;;;;;215.70;78.90;;;;;;;;;;5074961;28;20055;-70
2023/04/09 02:22:54;;;;;;;216.52;81.40;;;;;;;;;;5074990;28;20028;-71
2023/04/09 02:25:21;;;;;;;212.93;78.60;;;;;;;;;;5075804;28;20024;-70
2023/04/09 02:27:46;;;;;;;219.48;79.40;;;9.00;94.40;;;;;;5075245;28;20402;-70
2023/04/09 02:30:12;;;;;;;199.82;76.03;;;;;;;;;;5075470;28;20017;-70
2023/04/09 02:32:38;;;;;;;201.77;76.55;;;8.30;99.90;;;;;;5074836;28;20029;-71
2023/04/09 02:35:04;;;;;;;207.30;77.97;;;8.30;99.90;;;;;;5075487;28;20367;-71
2023/04/09 02:37:29;;;;;;;211.30;79.38;;;8.30;99.90;;;;;;5075648;28;20032;-71
2023/04/09 02:39:55;;;;;;;194.45;73.00;;;8.30;99.90;;;;;;5075943;28;20070;-71
2023/04/09 02:42:20;;;;;;;213.05;78.30;;;8.20;99.90;;;;;;5074768;28;20032;-69
2023/04/09 02:44:46;;;;;;;202.70;76.40;;;8.30;99.90;;;;;;5074963;28;20028;-69
2023/04/09 02:47:11;;;;;;;194.77;76.30;;;8.30;99.90;;;;;;5074363;28;20033;-71
2023/04/09 02:49:37;;;;;;;196.07;74.72;;;8.30;99.90;;;;;;5074997;28;20474;-70
2023/04/09 02:52:03;;;;;;;195.80;75.57;;;8.30;99.90;;;;;;5074520;28;20021;-70
2023/04/09 02:54:28;;;;;;;191.73;73.30;;;8.40;99.90;;;;;;5074783;28;20108;-70
2023/04/09 02:56:55;;;;;;;196.15;74.15;;;8.30;99.90;;;;;;5074172;28;20163;-71
2023/04/09 02:59:20;;;;;;;193.70;73.75;;;8.40;99.90;;;;;;5073486;28;20505;-71
2023/04/09 03:01:46;;;;;;;194.20;72.60;;;8.40;99.90;;;;;;5073306;28;20032;-70
2023/04/09 03:04:11;;;;;;;193.57;74.55;;;8.40;99.90;;;;;;5073497;28;20470;-71
2023/04/09 03:06:37;;;;;;;184.82;72.90;;;8.40;99.90;;;;;;5073131;28;20040;-70
2023/04/09 03:09:02;;;;;;;185.55;73.03;;;8.40;99.90;;;;;;5073532;28;20367;-70
2023/04/09 03:11:28;;;;;;;196.23;74.20;;;8.30;99.90;;;;;;5073722;28;20025;-70
2023/04/09 03:13:54;;;;;;;196.60;73.30;;;8.40;99.90;;;;;;5073109;28;20490;-71
2023/04/09 03:16:19;;;;;;;197.57;74.07;;;8.30;99.90;;;;;;5073272;28;20016;-69
2023/04/09 03:18:45;;;;;;;203.45;75.53;;;8.30;99.90;;;;;;5073494;28;20025;-70
2023/04/09 03:21:10;;;;;;;186.82;72.95;;;8.30;99.90;;;;;;5073242;28;20028;-69
2023/04/09 03:23:36;;;;;;;190.25;76.35;;;8.30;99.90;;;;;;5072885;28;20028;-71
2023/04/09 03:26:03;;;;;;;188.02;75.22;;;8.20;99.90;;;;;;5073232;28;20024;-70
2023/04/09 03:28:29;;;;;;;191.77;76.00;;;8.30;99.90;;;;;;5073047;28;20025;-70
2023/04/09 03:30:55;;;;;;;195.73;75.53;;;8.30;99.90;;;;;;5072955;28;20021;-70
2023/04/09 03:33:21;;;;;;;178.10;71.07;;;8.30;99.90;;;;;;5072555;28;20534;-70
2023/04/09 03:35:46;;;;;;;174.80;71.45;;;8.40;99.90;;;;;;5072888;28;20028;-71
2023/04/09 03:38:12;;;;;;;178.20;71.15;;;8.40;99.90;;;;;;5072941;28;20052;-69
2023/04/09 03:40:37;;;;;;;182.40;73.07;;;8.40;99.90;;;;;;5072878;28;20364;-70
2023/04/09 03:43:03;;;;;;;173.63;71.45;;;8.50;99.90;;;;;;5072513;28;20060;-71
2023/04/09 03:45:29;;;;;;;184.43;70.82;;;8.40;99.90;;;;;;5072635;28;20028;-70
2023/04/09 03:47:54;;;;;;;173.20;71.43;;;8.50;99.90;;;;;;5072692;28;20021;-71
2023/04/09 03:50:20;;;;;;;176.05;70.25;;;8.50;99.90;;;;;;5072904;28;20347;-69
2023/04/09 03:52:46;;;;;;;173.25;70.68;;;8.50;99.90;;;;;;5072490;28;20052;-71
2023/04/09 03:55:11;;;;;;;175.82;70.53;;;8.50;99.90;;;;;;5072560;28;20035;-69
2023/04/09 03:57:37;;;;;;;180.27;72.35;;;8.60;99.90;;;;;;5072214;28;20040;-69
2023/04/09 04:00:03;;;;;;;169.82;71.72;;;8.50;99.90;;;;;;5072715;28;20058;-74
2023/04/09 04:02:32;;;;;;;184.18;72.53;;;8.50;99.90;;;;;;5072143;28;20024;-71
2023/04/09 04:04:58;;;;;;;183.68;74.38;;;8.50;99.90;;;;;;5072487;28;20480;-72
2023/04/09 04:07:24;;;;;;;195.80;76.90;;;8.50;99.90;;;;;;5072139;28;20543;-69
2023/04/09 04:09:50;;;;;;;180.23;71.80;;;8.60;99.90;;;;;;5072828;28;20115;-69
2023/04/09 04:12:15;;;;;;;177.60;73.90;;;8.50;99.90;;;;;;5071961;28;20048;-69
2023/04/09 04:14:41;;;;;;;164.95;68.75;;;8.50;99.90;;;;;;5072113;28;20016;-69
2023/04/09 04:17:07;;;;;;;169.93;70.30;;;8.60;99.90;;;;;;5072214;28;20107;-70
2023/04/09 04:19:32;;;;;;;174.38;72.25;;;8.50;99.90;;;;;;5072636;28;20158;-69
2023/04/09 04:21:58;;;;;;;172.05;71.93;;;8.40;99.90;;;;;;5071956;28;20487;-69
2023/04/09 04:24:24;;;;;;;185.30;74.95;;;8.40;99.90;;;;;;5072512;28;20028;-69
2023/04/09 04:26:49;;;;;;;186.55;75.65;;;8.30;99.90;;;;;;5071994;28;20016;-69
2023/04/09 04:29:15;;;;;;;188.02;75.40;;;8.40;99.90;;;;;;5071897;28;20024;-69
2023/04/09 04:31:41;;;;;;;192.63;76.00;;;8.40;99.90;;;;;;5071889;28;20028;-69
2023/04/09 04:34:06;;;;;;;189.70;75.97;;;8.40;99.90;;;;;;5072034;28;20025;-69
2023/04/09 04:36:32;;;;;;;188.43;74.93;;;8.30;99.90;;;;;;5071831;28;20027;-69
2023/04/09 04:38:57;;;;;;;193.00;75.30;;;8.30;99.90;;;;;;5071650;28;20050;-68
2023/04/09 04:41:23;;;;;;;186.40;75.18;;;8.40;99.90;;;;;;5072213;28;20071;-70
2023/04/09 04:43:49;;;;;;;192.27;76.75;;;8.30;99.90;;;;;;5071736;28;20032;-70
2023/04/09 04:46:14;;;;;;;194.10;77.20;;;8.30;99.90;;;;;;5071986;28;20029;-70
2023/04/09 04:48:40;;;;;;;186.90;74.90;;;8.30;99.90;;;;;;5072041;28;20044;-69
2023/04/09 04:51:06;;;;;;;191.75;75.20;;;8.30;99.90;;;;;;5072514;28;20418;-70
2023/04/09 04:53:31;;;;;;;188.32;75.43;;;8.30;99.90;;;;;;5072328;28;20110;-73
2023/04/09 04:55:58;;;;;;;183.55;74.28;;;8.30;99.90;;;;;;5072363;28;20048;-73
2023/04/09 04:58:24;;;;;;;200.45;76.05;;;8.30;99.90;;;;;;5054477;28;20036;-69
2023/04/09 05:00:50;;;;;;;200.30;78.00;;;8.30;99.90;;;;;;5071551;28;20383;-69
2023/04/09 05:03:16;;;;;;;211.75;80.97;;;8.30;99.90;;;;;;5071276;28;20032;-69
2023/04/09 05:05:42;;;;;;;208.45;79.50;;;8.30;99.90;;;;;;5068295;28;20046;-70
2023/04/09 05:08:07;;;;;;;207.20;78.03;;;8.30;99.90;;;;;;5071354;28;20039;-70
2023/04/09 05:10:33;;;;;;;219.70;81.75;;;8.30;99.90;;;;;;5057117;28;20033;-69
2023/04/09 05:12:58;;;;;;;205.10;80.55;;;8.30;99.90;;;;;;5050832;28;20482;-69
2023/04/09 05:15:24;;;;;;;214.85;81.00;;;8.20;99.90;;;;;;5050470;28;20115;-70
2023/04/09 05:17:50;;;;;;;206.13;78.03;;;8.30;99.90;;;;;;5050446;28;20025;-69
2023/04/09 05:20:15;;;;;;;202.48;79.20;;;8.30;99.90;;;;;;5050380;28;20033;-70
2023/04/09 05:22:41;;;;;;;204.85;79.25;;;8.30;99.90;;;;;;5050171;28;20028;-70
2023/04/09 05:25:07;;;;;;;211.05;78.38;;;8.30;99.90;;;;;;5050508;28;20033;-73
2023/04/09 05:27:32;;;;;;;203.73;78.45;;;8.20;99.90;;;;;;5050395;28;20033;-70
2023/04/09 05:29:58;;;;;;;201.68;77.43;;;8.30;99.90;;;;;;5050364;28;20079;-69
2023/04/09 05:32:24;;;;;;;204.48;78.13;;;8.30;99.90;;;;;;5050410;28;20047;-70
2023/04/09 05:34:49;;;;;;;196.90;75.35;;;8.30;99.90;;;;;;5051180;28;20419;-70
2023/04/09 05:37:15;;;;;;;200.77;76.38;;;8.40;99.90;;;;;;5060843;28;20024;-69
2023/04/09 05:39:40;;;;;;;206.60;75.55;;;8.30;99.90;;;;;;5061903;28;20033;-69
2023/04/09 05:42:06;;;;;;;218.20;77.80;;;8.30;99.90;;;;;;5064121;28;20066;-70
2023/04/09 05:44:32;;;;;;;224.82;79.40;;;8.30;99.90;;;;;;5062800;28;20518;-69
2023/04/09 05:46:57;;;;;;;226.57;79.25;;;8.30;99.90;;;;;;5065767;28;20078;-70
2023/04/09 05:49:24;;;;;;;242.15;81.28;;;8.30;99.90;;;;;;5066505;28;20028;-69
2023/04/09 05:51:50;;;;;;;212.43;77.65;;;8.30;99.90;;;;;;5066483;28;20035;-70
2023/04/09 05:54:15;;;;;;;209.35;76.50;;;8.30;99.90;;;;;;5065420;28;20021;-70
2023/04/09 05:56:44;;;;;;;187.73;70.75;;;8.30;99.90;;;;;;5064229;28;20129;-70
2023/04/09 05:59:10;;;;;;;185.32;69.07;;;8.30;99.90;;;;;;5062963;28;20033;-72
2023/04/09 06:01:36;;;;;;;193.18;69.88;;;8.30;99.90;;;;;;5063333;28;20401;-72
2023/04/09 06:04:01;;;;;;;186.95;69.53;;;8.40;99.90;;;;;;5051045;28;20040;-72
2023/04/09 06:06:27;;;;;;;187.13;67.95;;;8.30;99.90;;;;;;5072123;28;20024;-72
2023/04/09 06:08:52;;;;;;;189.43;69.18;;;8.30;99.90;;;;;;5062604;28;20029;-72
2023/04/09 06:11:18;;;;;;;197.63;69.93;;;8.30;99.90;;;;;;5064216;28;20462;-72
2023/04/09 06:13:44;;;;;;;183.82;68.93;;;8.30;99.90;;;;;;5063203;28;20429;-72
2023/04/09 06:16:09;;;;;;;180.80;65.95;;;8.30;99.90;;;;;;5065504;28;20055;-72
2023/04/09 06:18:38;;;;;;;175.32;65.97;;;8.40;99.90;;;;;;5063706;28;20481;-71
2023/04/09 06:21:06;;;;;;;176.32;66.35;;;8.40;99.90;;;;;;5059017;28;20043;-72
2023/04/09 06:23:33;;;;;;;183.23;65.68;;;8.40;99.90;;;;;;5062183;28;20033;-71
2023/04/09 06:25:59;;;;;;;174.82;65.78;;;8.50;99.90;;;;;;5065195;28;20056;-71
2023/04/09 06:28:25;;;;;;;169.88;64.25;;;8.60;99.90;;;;;;5074009;28;20024;-72
2023/04/09 06:30:52;;;;;;;159.73;62.08;;;8.50;99.90;;;;;;5073772;28;20081;-72
2023/04/09 06:33:18;;;;;;;167.77;64.78;;;8.60;99.90;;;;;;5073436;28;20081;-72
2023/04/09 06:35:43;;;;;;;159.15;62.97;;;8.60;99.90;;;;;;5074045;28;20029;-72
2023/04/09 06:38:09;;;;;;;164.88;62.83;;;8.70;99.90;;;;;;5072882;28;20470;-72
2023/04/09 06:40:37;;;;;;;168.63;64.90;;;8.80;99.90;;;;;;5073257;28;20025;-71
2023/04/09 06:43:03;;;;;;;163.70;63.45;;;8.80;99.90;;;;;;5072499;28;20075;-72
2023/04/09 06:45:30;;;;;;;163.60;63.97;;;8.80;99.90;;;;;;5073572;28;20025;-70
2023/04/09 06:47:55;;;;;;;156.55;62.25;;;8.90;99.90;;;;;;5073674;28;20021;-71
2023/04/09 06:50:21;;;;;;;153.27;59.22;;;9.00;99.90;;;;;;5073648;28;20714;-70
2023/04/09 06:52:47;;;;;;;147.43;58.92;;;9.00;99.90;;;;;;5073110;28;20051;-71
2023/04/09 06:55:13;;;;;;;142.90;58.60;;;9.00;99.90;;;;;;5073745;28;20105;-71
2023/04/09 06:57:38;;;;;;;143.90;56.42;;;9.10;99.90;;;;;;5073291;28;20036;-71
2023/04/09 07:00:05;;;;;;;144.38;57.72;;;9.10;99.90;;;;;;5073729;28;20031;-71
2023/04/09 07:02:31;;;;;;;143.38;56.63;;;9.00;99.90;;;;;;5073457;28;20055;-71
2023/04/09 07:04:56;;;;;;;137.70;57.25;;;9.00;99.90;;;;;;5073450;28;20028;-71
2023/04/09 07:07:22;;;;;;;129.57;55.10;;;9.10;99.90;;;;;;5073300;28;20541;-70
2023/04/09 07:09:48;;;;;;;133.88;56.17;;;9.10;99.90;;;;;;5073255;28;20043;-70
2023/04/09 07:12:13;;;;;;;139.25;56.90;;;9.20;99.90;;;;;;5072993;28;20028;-73
2023/04/09 07:14:39;;;;;;;126.53;54.58;;;9.20;99.90;;;;;;5074394;28;20021;-71
2023/04/09 07:17:04;;;;;;;136.38;57.10;;;9.30;99.90;;;;;;5073572;28;20052;-73
2023/04/09 07:19:30;;;;;;;128.73;53.53;;;9.30;99.90;;;;;;5075637;28;20028;-74
2023/04/09 07:21:56;;;;;;;132.57;55.58;;;9.30;99.90;;;;;;5075789;28;20402;-71
2023/04/09 07:24:21;;;;;;;138.73;58.67;;;9.30;99.90;;;;;;5072974;28;20024;-71
2023/04/09 07:26:47;;;;;;;134.27;56.58;;;9.30;99.90;;;;;;5074070;28;20025;-75
2023/04/09 07:29:13;;;;;;;134.13;55.08;;;9.30;99.90;;;;;;5075229;28;20025;-72
2023/04/09 07:31:39;;;;;;;125.80;54.80;;;9.30;99.90;;;;;;5073754;28;20428;-71
2023/04/09 07:34:05;;;;;;;122.57;52.83;;;9.40;99.90;;;;;;5072549;28;20029;-72
2023/04/09 07:36:30;;;;;;;131.73;55.90;;;9.40;99.90;;;;;;5072656;28;20032;-70
2023/04/09 07:38:56;;;;;;;132.70;58.17;;;9.50;99.90;;;;;;5072960;28;20020;-72
2023/04/09 07:41:21;;;;;;;126.28;53.17;;;9.50;99.90;;;;;;5072848;28;20035;-72
2023/04/09 07:43:47;;;;;;;128.27;54.92;;;9.70;99.90;;;;;;5072377;28;20032;-71
2023/04/09 07:46:20;;;;;;;113.72;50.50;;;9.80;99.90;;;;;;5072795;28;20036;-71
2023/04/09 07:48:46;;;;;;;124.82;53.72;;;9.90;99.90;;;;;;5072650;28;20017;-71
2023/04/09 07:51:11;;;;;;;110.72;49.78;;;9.90;99.90;;;;;;5072484;28;20092;-70
2023/04/09 07:53:37;;;;;;;111.15;50.33;;;10.00;99.90;;;;;;5072212;28;20025;-71
2023/04/09 07:56:03;;;;;;;115.45;50.92;;;10.00;99.90;;;;;;5072199;28;20033;-71
2023/04/09 07:58:29;;;;;;;108.70;48.25;;;10.00;99.90;;;;;;5072605;28;20055;-71
2023/04/09 08:00:54;;;;;;;103.40;47.72;;;10.10;99.90;;;;;;5072592;28;20094;-70
2023/04/09 08:03:21;;;;;;;92.43;44.20;;;10.20;99.90;;;;;;5072208;28;20028;-73
2023/04/09 08:05:47;;;;;;;90.82;41.90;;;10.20;99.90;;;;;;5071750;28;20056;-71
2023/04/09 08:08:12;;;;;;;91.22;41.47;;;10.30;99.90;;;;;;5072110;28;20017;-70
2023/04/09 08:10:38;;;;;;;86.97;42.08;;;10.30;99.90;;;;;;5072771;28;20052;-72
2023/04/09 08:13:03;;;;;;;86.40;41.35;;;10.30;99.90;;;;;;5072010;28;20028;-71
2023/04/09 08:15:29;;;;;;;84.22;38.90;;;10.30;99.90;;;;;;5071997;28;20039;-71
2023/04/09 08:17:55;;;;;;;88.00;42.05;;;10.30;99.90;;;;;;5072143;28;20032;-71
2023/04/09 08:20:21;;;;;;;84.80;40.38;;;10.20;99.90;;;;;;5072035;28;20025;-70
2023/04/09 08:22:47;;;;;;;82.18;38.15;;;10.20;99.90;;;;;;5071712;28;20490;-70
2023/04/09 08:25:13;;;;;;;75.85;36.97;;;10.30;99.90;;;;;;5072168;28;20031;-71
2023/04/09 08:27:38;;;;;;;71.82;35.90;;;10.30;99.90;;;;;;5072123;28;20029;-71
2023/04/09 08:30:04;;;;;;;64.07;31.63;;;10.40;99.90;;;;;;5072289;28;20036;-70
2023/04/09 08:32:30;;;;;;;67.03;31.90;;;10.40;99.90;;;;;;5072007;28;20021;-70
2023/04/09 08:34:56;;;;;;;64.18;32.30;;;10.30;99.90;;;;;;5072131;28;20020;-71
2023/04/09 08:37:21;;;;;;;67.07;32.67;;;10.40;99.90;;;;;;5072250;28;20020;-72
2023/04/09 08:39:47;;;;;;;68.22;33.80;;;10.30;99.90;;;;;;5071813;28;20025;-70
2023/04/09 08:42:14;;;;;;;67.10;33.63;;;10.40;99.90;;;;;;5071459;28;20129;-70
2023/04/09 08:44:39;;;;;;;73.75;35.90;;;10.40;99.90;;;;;;5072026;28;20029;-70
2023/04/09 08:47:10;;;;;;;68.82;35.55;;;10.40;99.90;;;;;;5071571;28;20032;-71
2023/04/09 08:49:38;;;;;;;73.40;34.42;;;10.50;99.30;;;;;;5071883;28;20497;-71
2023/04/09 08:52:04;;;;;;;71.32;32.67;;;10.40;99.50;;;;;;5071413;28;20486;-69
2023/04/09 08:54:29;;;;;;;63.05;30.33;;;10.40;99.30;;;;;;5071811;28;20017;-74
2023/04/09 08:56:56;;;;;;;71.03;33.85;;;10.40;99.90;;;;;;5071692;28;20036;-70
2023/04/09 08:59:22;;;;;;;65.80;32.63;;;10.40;99.30;;;;;;5071657;28;20025;-71
2023/04/09 09:01:52;;;;;;;65.97;31.75;;;10.30;99.70;;;;;;5071380;28;20432;-70
2023/04/09 09:04:18;;;;;;;69.22;32.95;;;10.30;99.90;;;;;;5071445;28;20029;-71
2023/04/09 09:06:44;;;;;;;66.25;32.83;;;10.40;99.90;;;;;;5071633;28;20031;-71
2023/04/09 09:09:10;;;;;;;73.93;34.88;;;10.40;99.90;;;;;;5071588;28;20553;-70
2023/04/09 09:11:41;;;;;;;73.10;35.15;;;10.40;99.90;;;;;;5071499;28;20024;-71
2023/04/09 09:14:12;;;;;;;69.30;34.08;;;10.40;99.90;;;;;;5071493;28;20059;-72
2023/04/09 09:16:42;;;;;;;72.13;32.67;;;10.40;99.80;;;;;;5071648;28;20311;-70
2023/04/09 09:19:08;;;;;;;71.03;33.53;;;10.50;99.70;;;;;;5075630;28;20054;-71
2023/04/09 09:21:35;;;;;;;75.90;34.22;;;10.40;99.30;;;;;;5075464;28;20033;-71
2023/04/09 09:24:01;;;;;;;73.18;34.08;;;10.50;98.90;;;;;;5075482;28;20024;-70
2023/04/09 09:26:28;;;;;;;73.15;32.92;;;10.50;98.50;;;;;;5075390;28;20031;-71
2023/04/09 09:28:57;;;;;;;72.80;33.70;;;10.50;98.40;;;;;;5075630;28;20389;-70
2023/04/09 09:31:23;;;;;;;72.07;34.17;;;10.50;98.40;;;;;;5075762;28;20236;-71
2023/04/09 09:33:50;;;;;;;74.07;34.72;;;10.50;98.50;;;;;;5075134;28;20070;-71
2023/04/09 09:36:30;;;;;;;76.03;34.67;;;10.60;98.40;;;;;;5075246;28;20056;-71
2023/04/09 09:39:00;;;;;;;68.00;31.98;;;10.70;98.00;;;;;;5075093;28;20024;-71
2023/04/09 09:41:27;;;;;;;77.45;36.03;;;10.70;97.30;;;;;;5075595;28;20381;-74
2023/04/09 09:43:52;;;;;;;77.78;34.90;;;10.80;97.60;;;;;;5076019;28;20028;-72
2023/04/09 09:46:19;;;;;;;72.53;34.30;;;10.80;97.00;;;;;;5076230;28;20031;-71
2023/04/09 09:48:45;;;;;;;77.55;36.08;;;10.90;97.20;;;;;;5076480;28;20035;-71
2023/04/09 09:51:13;;;;;;;78.70;35.90;;;10.90;96.60;;;;;;5076615;28;20414;-69
2023/04/09 09:53:42;;;;;;;74.05;35.08;;;10.90;95.80;;;;;;5076276;28;20042;-71
2023/04/09 09:56:18;;;;;;;74.22;34.60;;;10.80;96.00;;;;;;5075822;28;20025;-72
2023/04/09 09:59:02;;;;;;;73.22;34.10;;;10.80;96.60;;;;;;5075001;28;20031;-71
2023/04/09 10:01:28;;;;;;;74.82;33.97;;;10.90;96.00;;;;;;5076365;28;20013;-71
2023/04/09 10:03:55;;;;;;;79.10;35.90;;;11.10;94.30;;;;;;5077384;28;20051;-72
2023/04/09 10:06:22;;;;;;;74.93;35.58;;;11.10;94.00;;;;;;5074572;28;20032;-72
2023/04/09 10:08:50;;;;;;;72.57;34.92;;;11.10;93.80;;;;;;5074517;28;20098;-71
2023/04/09 10:11:17;;;;;;;71.82;34.65;;;11.10;94.80;;;;;;5061333;28;20021;-71
2023/04/09 10:13:50;;;;;;;79.15;36.15;;;11.10;94.70;;;;;;5074120;28;20028;-70
2023/04/09 10:16:17;;;;;;;81.72;38.55;;;11.30;95.20;;;;;;5054975;28;20037;-71
2023/04/09 10:18:43;;;;;;;71.10;34.95;;;11.20;94.60;;;;;;5054515;28;20025;-73
2023/04/09 10:21:23;;;;;;;70.05;34.42;;;11.30;93.90;;;;;;5054380;28;20025;-73
2023/04/09 10:23:50;;;;;;;79.75;36.70;;;11.30;93.20;;;;;;5053998;28;20079;-72
2023/04/09 10:26:18;;;;;;;77.20;36.38;;;11.30;93.80;;;;;;5073872;28;20025;-72
2023/04/09 10:28:44;;;;;;;71.15;34.72;;;11.20;93.30;;;;;;5074856;28;20025;-72
2023/04/09 10:31:09;;;;;;;71.03;34.00;;;11.30;93.60;;;;;;5074220;28;20547;-71
2023/04/09 10:33:37;;;;;;;60.85;30.70;;;11.20;93.90;;;;;;5074049;28;20060;-71
2023/04/09 10:36:08;;;;;;;71.78;33.47;;;11.30;93.60;;;;;;5074248;28;20035;-71
2023/04/09 10:38:44;;;;;;;65.45;32.83;;;11.30;92.90;;;;;;5073395;28;20024;-71
2023/04/09 10:41:17;;;;;;;67.32;32.63;;;11.30;93.60;;;;;;5073636;28;20021;-73
2023/04/09 10:43:45;;;;;;;64.35;31.73;;;11.30;94.20;;;;;;5073691;28;20020;-71
2023/04/09 10:46:34;;;;;;;70.15;32.53;;;11.30;94.30;;;;;;5071656;28;20509;-72
2023/04/09 10:49:07;;;;;;;70.15;33.88;;;11.40;92.80;;;;;;5069384;28;20029;-72
2023/04/09 10:51:40;;;;;;;64.40;32.60;;;11.40;93.00;;;;;;5069620;28;20023;-73
2023/04/09 10:54:32;;;;;;;74.67;34.63;;;11.30;91.80;;;;;;5068228;28;20492;-72
2023/04/09 10:57:06;;;;;;;72.05;33.05;;;11.20;92.90;;;;;;5071041;28;20044;-70
2023/04/09 10:59:47;;;;;;;61.78;31.25;;;11.20;91.90;;;;;;5070251;28;20523;-72
2023/04/09 11:02:30;;;;;;;62.03;31.25;;;11.20;92.10;;;;;;5070154;28;20319;-72
2023/04/09 11:05:05;;;;;;;58.95;31.20;;;11.30;93.10;;;;;;5072421;28;20040;-72
2023/04/09 11:07:33;;;;;;;58.70;30.25;;;11.30;92.40;;;;;;5073292;28;20024;-71
2023/04/09 11:09:59;;;;;;;60.88;30.33;;;11.40;93.30;;;;;;5076117;28;20012;-72
2023/04/09 11:12:25;;;;;;;60.67;30.95;;;11.50;91.80;;;;;;5076731;28;20030;-71
2023/04/09 11:14:51;;;;;;;59.97;30.73;;;11.60;91.70;;;;;;5071042;28;20389;-72
2023/04/09 11:17:17;;;;;;;59.30;31.65;;;11.70;87.90;;;;;;5070588;28;20024;-71
2023/04/09 11:19:43;;;;;;;58.03;29.50;;;11.90;84.70;;;;;;5070224;28;20440;-72
2023/04/09 11:22:09;;;;;;;57.10;30.45;;;12.00;78.70;;;;;;5070020;28;20048;-71
2023/04/09 11:24:49;;;;;;;57.10;30.25;;;12.10;76.00;;;;;;5069569;28;20094;-72
2023/04/09 11:27:18;;;;;;;57.38;29.67;;;12.20;74.80;;;;;;5069759;28;20138;-72
2023/04/09 11:29:44;;;;;;;55.55;29.02;;;12.30;72.80;;;;;;5069326;28;20036;-73
2023/04/09 11:32:11;;;;;;;54.30;29.67;;;12.30;69.20;;;;;;5069118;28;20027;-71
2023/04/09 11:34:37;;;;;;;60.10;28.80;;;12.40;66.20;;;;;;5069018;28;20386;-72
2023/04/09 11:37:08;;;;;;;55.15;29.10;;;12.40;67.00;;;;;;5070678;28;20045;-72
2023/04/09 11:39:36;;;;;;;61.47;31.02;;;12.40;69.20;;;;;;5068495;28;20051;-71
2023/04/09 11:42:02;;;;;;;60.65;30.65;;;12.40;65.20;;;;;;5069095;28;20478;-72
2023/04/09 11:44:29;;;;;;;60.47;30.75;;;12.40;64.00;;;;;;5067168;28;20036;-72
2023/04/09 11:46:56;;;;;;;67.20;33.60;;;12.50;69.70;;;;;;5062667;28;20032;-72
2023/04/09 11:49:22;;;;;;;70.38;33.65;;;12.40;71.70;;;;;;5061791;28;20420;-72
2023/04/09 11:51:48;;;;;;;59.83;31.23;;;12.40;76.30;;;;;;5065522;28;20012;-72
2023/04/09 11:54:14;;;;;;;64.63;32.63;;;12.50;73.00;;;;;;5065931;28;20016;-71
2023/04/09 11:56:39;;;;;;;64.85;32.83;;;12.70;73.30;;;;;;5068864;28;20025;-72
2023/04/09 11:59:05;;;;;;;60.42;31.10;;;12.80;70.60;;;;;;5067332;28;20028;-71
2023/04/09 12:01:32;;;;;;;56.08;29.98;;;13.00;59.60;;;;;;5060856;28;20055;-71
2023/04/09 12:03:58;;;;;;;56.67;30.42;;;13.20;55.60;;;;;;5067422;28;20104;-71
2023/04/09 12:06:25;;;;;;;56.05;30.45;;;13.70;62.30;;;;;;5063312;28;20017;-72
2023/04/09 12:08:55;;;;;;;56.00;30.02;;;14.60;99.90;;;;;;5061329;28;20028;-73
2023/04/09 12:11:27;;;;;;;53.33;28.95;;;;;;;;;;5066719;28;20340;-73
2023/04/09 12:13:58;;;;;;;53.35;28.13;;;;;;;;;;5064364;28;20033;-72
2023/04/09 12:16:24;;;;;;;53.22;29.25;;;;;;;;;;5063018;28;20042;-72
2023/04/09 12:18:54;;;;;;;47.85;26.30;;;15.70;99.90;;;;;;5063124;28;20032;-72
2023/04/09 12:21:23;;;;;;;53.38;29.48;;;;;;;;;;5068163;28;20082;-72
2023/04/09 12:23:49;;;;;;;50.05;28.08;;;19.10;99.90;;;;;;5056307;28;20505;-72
2023/04/09 12:26:14;;;;;;;53.03;29.08;;;21.20;1.00;;;;;;5051515;28;20025;-69
2023/04/09 12:28:40;;;;;;;53.38;29.35;;;21.00;99.90;;;;;;5051198;28;20386;-71
2023/04/09 12:31:09;;;;;;;42.88;25.63;;;21.20;99.90;;;;;;5051601;28;20025;-73
2023/04/09 12:33:37;;;;;;;45.25;26.40;;;21.70;54.70;;;;;;5051545;28;20019;-71
2023/04/09 12:36:03;;;;;;;46.63;27.20;;;21.80;1.00;;;;;;5052032;28;20020;-72
2023/04/09 12:38:29;;;;;;;58.15;31.65;;;21.70;1.00;;;;;;5052125;28;20471;-74
2023/04/09 12:40:54;;;;;;;44.80;27.70;;;22.10;99.90;;;;;;5052037;28;20437;-73
2023/04/09 12:43:20;;;;;;;46.85;28.05;;;22.70;7.10;;;;;;5065346;28;20028;-71
2023/04/09 12:45:46;;;;;;;45.83;25.50;;;;;;;;;;5051829;28;20036;-71